createdAt,value
2022-11-24T00:27:46.168Z,5.94
2022-11-24T00:30:13.224Z,6.81
2022-11-24T00:32:40.314Z,7.88
2022-11-24T00:35:07.372Z,8.75
2022-11-24T00:37:34.383Z,9.63
2022-11-24T00:40:01.418Z,10.81
2022-11-24T00:42:28.383Z,11.94
2022-11-24T00:44:55.396Z,13.00
2022-11-24T00:47:22.383Z,13.94
2022-11-24T00:49:49.418Z,15.13
2022-11-24T00:52:16.502Z,16.25
2022-11-24T00:54:43.541Z,17.00
2022-11-24T00:57:10.577Z,17.88
2022-11-24T00:59:37.546Z,18.69
2022-11-24T01:02:04.554Z,19.50
2022-11-24T01:04:31.921Z,20.38
2022-11-24T01:06:59.096Z,21.19
2022-11-24T01:09:26.058Z,21.81
2022-11-24T01:11:53.107Z,22.63
2022-11-24T01:14:20.129Z,23.44
2022-11-24T01:16:47.091Z,24.00
2022-11-24T01:19:14.122Z,24.38
2022-11-24T01:21:41.165Z,24.25
2022-11-24T01:24:08.160Z,23.94
2022-11-24T01:26:35.157Z,23.56
2022-11-24T01:29:02.133Z,23.06
2022-11-24T01:31:29.167Z,22.69
2022-11-24T01:33:56.153Z,22.25
2022-11-24T01:36:23.175Z,21.88
2022-11-24T01:38:50.228Z,21.50
2022-11-24T01:41:17.236Z,21.19
2022-11-24T01:43:44.238Z,20.88
2022-11-24T01:46:11.297Z,20.88
2022-11-24T01:48:38.309Z,21.25
2022-11-24T01:51:05.363Z,21.94
2022-11-24T01:53:32.342Z,22.81
2022-11-24T01:55:59.325Z,23.75
2022-11-24T01:58:26.305Z,24.38
2022-11-24T02:00:53.407Z,24.63
2022-11-24T02:03:20.387Z,24.50
2022-11-24T02:05:47.449Z,24.25
2022-11-24T02:08:14.474Z,23.81
2022-11-24T02:10:41.492Z,23.38
2022-11-24T02:13:08.522Z,23.06
2022-11-24T02:15:35.625Z,22.69
2022-11-24T02:18:02.643Z,22.38
2022-11-24T02:20:29.625Z,22.06
2022-11-24T02:22:56.599Z,21.81
2022-11-24T02:25:23.635Z,21.50
2022-11-24T02:27:53.921Z,21.19
2022-11-24T02:30:21.289Z,21.00
2022-11-24T02:32:48.241Z,21.25
2022-11-24T02:35:15.217Z,21.69
2022-11-24T02:37:42.200Z,22.44
2022-11-24T02:40:09.164Z,23.38
2022-11-24T02:42:36.183Z,24.25
2022-11-24T02:45:03.194Z,24.75
2022-11-24T02:47:30.246Z,24.81
2022-11-24T02:49:57.211Z,24.63
2022-11-24T02:52:24.223Z,24.38
2022-11-24T02:54:51.219Z,24.00
2022-11-24T02:57:18.249Z,23.56
2022-11-24T02:59:45.282Z,23.25
2022-11-24T03:02:12.315Z,22.88
2022-11-24T03:04:39.284Z,22.50
2022-11-24T03:07:06.347Z,22.19
2022-11-24T03:09:33.344Z,21.94
2022-11-24T03:12:00.311Z,21.69
2022-11-24T03:14:27.354Z,21.44
2022-11-24T03:16:54.332Z,21.13
2022-11-24T03:19:21.328Z,21.38
2022-11-24T03:21:48.337Z,21.94
2022-11-24T03:24:15.347Z,22.69
2022-11-24T03:26:42.396Z,23.56
2022-11-24T03:29:09.388Z,24.56
2022-11-24T03:31:36.465Z,25.00
2022-11-24T03:34:03.547Z,25.00
2022-11-24T03:36:30.532Z,24.75
2022-11-24T03:38:57.539Z,24.50
2022-11-24T03:41:24.525Z,24.13
2022-11-24T03:43:51.528Z,23.44
2022-11-24T03:46:18.584Z,23.00
2022-11-24T03:48:45.620Z,22.56
2022-11-24T03:51:12.602Z,21.94
2022-11-24T03:53:39.601Z,21.44
2022-11-24T03:56:06.599Z,21.13
2022-11-24T03:58:33.612Z,20.75
2022-11-24T04:01:00.634Z,21.50
2022-11-24T04:03:27.603Z,22.13
2022-11-24T04:05:54.632Z,22.81
2022-11-24T04:08:21.631Z,23.56
2022-11-24T04:10:48.666Z,24.50
2022-11-24T04:13:15.619Z,25.06
2022-11-24T04:15:42.702Z,25.19
2022-11-24T04:18:09.799Z,25.06
2022-11-24T04:20:37.201Z,24.81
2022-11-24T04:23:04.337Z,24.31
2022-11-24T04:25:31.341Z,23.88
2022-11-24T04:27:58.323Z,23.38
2022-11-24T04:30:25.374Z,23.06
2022-11-24T04:32:52.394Z,22.44
2022-11-24T04:35:19.443Z,22.00
2022-11-24T04:37:46.402Z,21.38
2022-11-24T04:40:13.399Z,21.00
2022-11-24T04:42:40.393Z,20.94
2022-11-24T04:45:07.420Z,21.63
2022-11-24T04:47:34.446Z,22.31
2022-11-24T04:50:01.426Z,23.31
2022-11-24T04:52:28.412Z,24.06
2022-11-24T04:54:55.420Z,24.94
2022-11-24T04:57:22.439Z,25.31
2022-11-24T04:59:49.452Z,25.31
2022-11-24T05:02:16.433Z,25.19
2022-11-24T05:04:43.503Z,24.56
2022-11-24T05:07:14.985Z,24.13
2022-11-24T05:09:58.924Z,23.69
2022-11-24T05:12:26.458Z,22.81
2022-11-24T05:14:53.425Z,22.19
2022-11-24T05:17:20.454Z,21.69
2022-11-24T05:19:47.450Z,21.25
2022-11-24T05:22:14.448Z,20.88
2022-11-24T05:24:41.469Z,21.06
2022-11-24T05:27:08.447Z,21.81
2022-11-24T05:29:35.452Z,22.63
2022-11-24T05:32:02.425Z,23.31
2022-11-24T05:34:29.365Z,24.31
2022-11-24T05:36:56.331Z,25.00
2022-11-24T05:39:23.383Z,25.13
2022-11-24T05:41:50.385Z,25.06
2022-11-24T05:44:17.383Z,24.81
2022-11-24T05:46:44.446Z,24.50
2022-11-24T05:49:11.492Z,24.13
2022-11-24T05:51:38.522Z,23.69
2022-11-24T05:54:24.075Z,22.81
2022-11-24T05:56:51.077Z,22.69
2022-11-24T05:59:18.124Z,22.38
2022-11-24T06:01:45.161Z,21.94
2022-11-24T06:04:12.321Z,21.69
2022-11-24T06:06:39.317Z,21.13
2022-11-24T06:09:06.347Z,20.94
2022-11-24T06:11:33.354Z,21.25
2022-11-24T06:14:00.426Z,22.00
2022-11-24T06:16:27.618Z,22.94
2022-11-24T06:18:54.642Z,23.75
2022-11-24T06:21:21.665Z,24.81
2022-11-24T06:23:48.643Z,25.31
2022-11-24T06:26:15.615Z,25.19
2022-11-24T06:28:42.651Z,25.06
2022-11-24T06:31:09.720Z,24.63
2022-11-24T06:33:36.771Z,24.19
2022-11-24T06:36:03.741Z,23.81
2022-11-24T06:38:30.722Z,23.56
2022-11-24T06:40:57.704Z,23.13
2022-11-24T06:43:24.735Z,22.81
2022-11-24T06:45:51.772Z,22.38
2022-11-24T06:48:18.804Z,21.94
2022-11-24T06:50:45.848Z,21.56
2022-11-24T06:53:12.953Z,21.25
2022-11-24T06:55:39.933Z,21.00
2022-11-24T06:58:07.146Z,20.88
2022-11-24T07:00:34.253Z,21.31
2022-11-24T07:03:01.681Z,22.06
2022-11-24T07:05:28.763Z,22.88
2022-11-24T07:07:55.866Z,24.06
2022-11-24T07:10:22.914Z,24.88
2022-11-24T07:12:50.009Z,25.44
2022-11-24T07:15:17.070Z,25.38
2022-11-24T07:17:44.082Z,25.19
2022-11-24T07:20:11.193Z,24.88
2022-11-24T07:22:38.241Z,24.38
2022-11-24T07:25:05.234Z,24.00
2022-11-24T07:27:32.202Z,23.56
2022-11-24T07:29:59.192Z,23.13
2022-11-24T07:32:26.194Z,22.94
2022-11-24T07:34:53.176Z,22.63
2022-11-24T07:37:20.125Z,22.50
2022-11-24T07:39:47.126Z,22.44
2022-11-24T07:42:14.217Z,22.38
2022-11-24T07:44:41.207Z,22.44
2022-11-24T07:47:08.221Z,22.50
2022-11-24T07:49:35.189Z,22.56
2022-11-24T07:52:02.197Z,22.25
2022-11-24T07:54:29.184Z,22.38
2022-11-24T07:56:56.155Z,22.25
2022-11-24T07:59:23.179Z,22.06
2022-11-24T08:01:50.256Z,22.13
2022-11-24T08:04:17.287Z,22.19
2022-11-24T08:06:47.324Z,22.19
2022-11-24T08:09:14.703Z,22.19
2022-11-24T08:11:41.659Z,22.25
2022-11-24T08:14:08.687Z,22.31
2022-11-24T08:16:35.714Z,22.31
2022-11-24T08:19:02.774Z,22.31
2022-11-24T08:21:29.781Z,22.44
2022-11-24T08:23:56.723Z,22.50
2022-11-24T08:26:23.741Z,22.50
2022-11-24T08:28:50.750Z,22.56
2022-11-24T08:31:17.808Z,22.25
2022-11-24T08:33:44.772Z,22.06
2022-11-24T08:36:11.773Z,21.88
2022-11-24T08:38:38.825Z,21.69
2022-11-24T08:41:06.790Z,21.50
2022-11-24T08:43:33.801Z,21.38
2022-11-24T08:46:00.793Z,21.19
2022-11-24T08:48:27.802Z,21.13
2022-11-24T08:50:54.842Z,21.06
2022-11-24T08:53:21.840Z,20.88
2022-11-24T08:55:48.895Z,20.75
2022-11-24T08:58:15.923Z,20.81
2022-11-24T09:00:42.887Z,20.69
2022-11-24T09:03:09.914Z,20.56
2022-11-24T09:05:51.751Z,20.69
2022-11-24T09:08:19.446Z,21.06
2022-11-24T09:10:46.418Z,22.00
2022-11-24T09:13:13.440Z,23.13
2022-11-24T09:15:40.463Z,24.69
2022-11-24T09:18:07.503Z,25.25
2022-11-24T09:20:34.522Z,25.38
2022-11-24T09:23:01.500Z,25.31
2022-11-24T09:25:28.503Z,25.06
2022-11-24T09:27:55.472Z,24.94
2022-11-24T09:30:22.486Z,24.56
2022-11-24T09:32:49.509Z,24.31
2022-11-24T09:35:16.475Z,24.00
2022-11-24T09:37:43.451Z,23.81
2022-11-24T09:40:10.428Z,23.75
2022-11-24T09:42:37.437Z,23.81
2022-11-24T09:45:04.420Z,23.81
2022-11-24T09:47:31.399Z,24.00
2022-11-24T09:49:58.402Z,24.25
2022-11-24T09:52:25.433Z,24.25
2022-11-24T09:54:52.424Z,24.38
2022-11-24T09:57:19.552Z,24.25
2022-11-24T09:59:46.506Z,23.81
2022-11-24T10:02:13.483Z,23.75
2022-11-24T10:04:40.471Z,23.88
2022-11-24T10:07:07.549Z,23.94
2022-11-24T10:09:34.775Z,23.88
2022-11-24T10:12:02.017Z,23.75
2022-11-24T10:14:29.012Z,23.69
2022-11-24T10:16:56.018Z,23.69
2022-11-24T10:19:23.078Z,23.56
2022-11-24T10:21:50.054Z,23.44
2022-11-24T10:24:17.011Z,23.19
2022-11-24T10:26:43.991Z,22.94
2022-11-24T10:29:11.022Z,22.88
2022-11-24T10:31:38.068Z,22.56
2022-11-24T10:34:05.102Z,22.31
2022-11-24T10:36:32.071Z,22.06
2022-11-24T10:38:59.099Z,21.75
2022-11-24T10:41:26.089Z,21.50
2022-11-24T10:43:53.061Z,21.31
2022-11-24T10:46:20.287Z,21.25
2022-11-24T10:48:47.333Z,21.06
2022-11-24T10:51:14.363Z,20.81
2022-11-24T10:53:41.363Z,20.63
2022-11-24T10:56:08.365Z,20.44
2022-11-24T10:58:38.050Z,20.38
2022-11-24T11:01:05.568Z,20.88
2022-11-24T11:03:32.639Z,21.94
2022-11-24T11:05:59.617Z,22.94
2022-11-24T11:08:26.609Z,24.13
2022-11-24T11:10:53.693Z,24.63
2022-11-24T11:13:20.730Z,25.00
2022-11-24T11:15:47.797Z,25.50
2022-11-24T11:18:14.823Z,25.56
2022-11-24T11:20:41.804Z,25.31
2022-11-24T11:23:08.818Z,25.00
2022-11-24T11:25:35.780Z,24.75
2022-11-24T11:28:09.814Z,24.56
2022-11-24T11:36:12.419Z,24.25
2022-11-24T11:38:39.381Z,24.00
2022-11-24T11:41:06.442Z,23.81
2022-11-24T11:43:33.426Z,23.81
2022-11-24T11:46:00.549Z,23.69
2022-11-24T11:48:27.637Z,23.69
2022-11-24T11:53:41.628Z,24.38
2022-11-24T11:56:08.610Z,24.44
2022-11-24T11:58:35.622Z,24.63
2022-11-24T12:01:02.584Z,25.06
2022-11-24T12:03:29.738Z,25.38
2022-11-24T12:05:56.859Z,25.69
2022-11-24T12:08:23.913Z,25.94
2022-11-24T12:10:50.954Z,26.13
2022-11-24T12:13:17.959Z,26.31
2022-11-24T12:15:44.960Z,26.50
2022-11-24T12:18:33.060Z,26.63
2022-11-24T12:20:59.144Z,26.75
2022-11-24T12:23:26.129Z,26.88
2022-11-24T12:25:53.147Z,26.88
2022-11-24T12:28:20.162Z,26.81
2022-11-24T12:30:47.109Z,26.75
2022-11-24T12:33:14.106Z,26.69
2022-11-24T12:35:41.109Z,26.50
2022-11-24T12:38:08.109Z,26.38
2022-11-24T12:40:35.123Z,26.13
2022-11-24T12:43:02.124Z,25.88
2022-11-24T12:45:29.054Z,25.56
2022-11-24T12:47:56.048Z,25.19
2022-11-24T12:50:23.049Z,24.88
2022-11-24T12:52:54.148Z,24.56
2022-11-24T12:55:24.281Z,24.25
2022-11-24T12:57:51.244Z,23.94
2022-11-24T13:00:18.247Z,23.63
2022-11-24T13:02:45.428Z,23.31
2022-11-24T13:05:12.498Z,23.00
2022-11-24T13:07:39.579Z,22.69
2022-11-24T13:10:06.619Z,22.44
2022-11-24T13:12:33.590Z,22.19
2022-11-24T13:15:00.577Z,21.94
2022-11-24T13:17:32.884Z,21.63
2022-11-24T13:20:06.541Z,21.50
2022-11-24T13:22:33.536Z,21.31
2022-11-24T13:25:00.545Z,21.13
2022-11-24T13:27:27.522Z,20.94
2022-11-24T13:29:54.687Z,20.75
2022-11-24T13:32:21.817Z,21.00
2022-11-24T13:42:00.431Z,13.19
2022-11-24T13:44:27.441Z,14.50
2022-11-24T13:46:56.640Z,16.06
2022-11-24T13:49:27.168Z,15.50
2022-11-24T13:51:54.170Z,16.00
2022-11-24T13:54:21.153Z,16.06
2022-11-24T13:56:48.154Z,16.81
2022-11-24T13:59:15.126Z,17.88
2022-11-24T14:01:42.229Z,18.75
2022-11-24T14:06:56.614Z,19.88
2022-11-24T14:09:23.701Z,20.44
2022-11-24T14:11:50.819Z,21.75
2022-11-24T14:14:20.624Z,22.31
2022-11-24T14:16:47.954Z,23.69
2022-11-24T14:19:14.986Z,24.19
2022-11-24T14:21:41.983Z,24.56
2022-11-24T14:24:09.011Z,24.94
2022-11-24T14:26:37.661Z,24.38
2022-11-24T14:31:55.342Z,24.06
2022-11-24T14:34:22.319Z,23.19
2022-11-24T14:36:49.360Z,23.00
2022-11-24T14:39:16.363Z,22.81
2022-11-24T14:41:45.545Z,22.31
2022-11-24T14:44:12.559Z,22.06
2022-11-24T14:46:39.650Z,22.44
2022-11-24T14:49:06.671Z,23.19
2022-11-24T14:51:33.682Z,24.63
2022-11-24T14:54:00.682Z,25.13
2022-11-24T14:56:28.197Z,24.88
2022-11-24T14:58:55.444Z,25.56
2022-11-24T15:01:22.611Z,25.50
2022-11-24T15:03:49.672Z,25.69
2022-11-24T15:06:16.714Z,25.56
2022-11-24T15:08:43.743Z,25.13
2022-11-24T15:11:10.752Z,24.63
2022-11-24T15:13:37.795Z,24.00
2022-11-24T15:16:04.842Z,23.50
2022-11-24T15:18:31.958Z,23.00
2022-11-24T15:20:58.935Z,22.19
2022-11-24T15:23:26.090Z,21.94
2022-11-24T15:25:53.205Z,21.56
2022-11-24T15:28:20.203Z,21.50
2022-11-24T15:30:47.223Z,22.06
2022-11-24T15:33:14.251Z,23.00
2022-11-24T15:35:41.256Z,24.13
2022-11-24T15:38:08.246Z,25.00
2022-11-24T15:40:35.232Z,25.63
2022-11-24T15:43:06.443Z,26.56
2022-11-24T15:45:33.740Z,27.25
2022-11-24T15:48:00.732Z,26.81
2022-11-24T15:50:27.722Z,26.25
2022-11-24T15:54:32.569Z,24.50
2022-11-24T15:56:59.875Z,24.00
2022-11-24T15:59:26.950Z,23.56
2022-11-24T16:01:59.400Z,23.25
2022-11-24T16:04:26.355Z,22.88
2022-11-24T16:06:53.357Z,22.63
2022-11-24T16:09:20.330Z,22.38
2022-11-24T16:11:47.320Z,22.13
2022-11-24T16:14:14.391Z,22.00
2022-11-24T16:16:41.459Z,21.88
2022-11-24T16:19:08.546Z,21.69
2022-11-24T16:21:35.508Z,21.63
2022-11-24T16:24:05.501Z,21.75
2022-11-24T16:26:32.488Z,22.38
2022-11-24T16:28:59.524Z,23.75
2022-11-24T16:31:26.615Z,25.06
2022-11-24T16:33:53.657Z,26.56
2022-11-24T16:36:20.681Z,27.44
2022-11-24T16:38:47.883Z,27.25
2022-11-24T16:41:14.990Z,26.94
2022-11-24T16:43:42.038Z,26.25
2022-11-24T16:46:09.158Z,25.69
2022-11-24T16:48:36.219Z,25.19
2022-11-24T16:51:03.244Z,24.75
2022-11-24T16:53:30.280Z,24.25
2022-11-24T16:55:57.257Z,23.88
2022-11-24T16:58:24.283Z,23.56
2022-11-24T17:00:51.364Z,23.44
2022-11-24T17:03:18.507Z,22.81
2022-11-24T17:05:45.549Z,22.69
2022-11-24T17:08:12.661Z,22.56
2022-11-24T17:10:39.777Z,23.13
2022-11-24T17:13:06.810Z,23.81
2022-11-24T17:15:37.775Z,24.19
2022-11-24T17:18:24.074Z,24.19
2022-11-24T17:20:52.084Z,23.56
2022-11-24T17:23:19.139Z,23.19
2022-11-24T17:25:46.106Z,23.13
2022-11-24T17:28:13.146Z,23.25
2022-11-24T17:30:40.203Z,23.31
2022-11-24T17:33:10.273Z,23.63
2022-11-24T17:35:37.229Z,23.75
2022-11-24T17:38:07.437Z,23.94
2022-11-24T17:40:34.509Z,24.19
2022-11-24T17:43:01.677Z,24.38
2022-11-24T17:45:28.763Z,24.63
2022-11-24T17:47:55.871Z,24.88
2022-11-24T17:50:26.060Z,25.25
2022-11-24T17:52:53.237Z,25.56
2022-11-24T17:55:20.250Z,26.00
2022-11-24T17:57:47.306Z,26.31
2022-11-24T18:00:14.460Z,26.56
2022-11-24T18:02:41.513Z,26.75
2022-11-24T18:05:08.624Z,27.00
2022-11-24T18:07:35.718Z,27.19
2022-11-24T18:10:04.915Z,27.25
2022-11-24T18:12:31.908Z,27.38
2022-11-24T18:14:59.062Z,27.50
2022-11-24T18:17:26.154Z,27.56
2022-11-24T18:19:53.174Z,27.56
2022-11-24T18:22:31.581Z,27.50
2022-11-24T18:25:07.159Z,27.56
2022-11-24T18:27:34.214Z,27.50
2022-11-24T18:30:01.254Z,27.56
2022-11-24T18:32:29.409Z,27.56
2022-11-24T18:34:56.381Z,27.38
2022-11-24T18:37:23.494Z,27.38
2022-11-24T18:39:50.507Z,27.25
2022-11-24T18:42:17.553Z,27.31
2022-11-24T18:44:44.876Z,27.25
2022-11-24T18:47:12.411Z,27.25
2022-11-24T18:49:39.398Z,27.25
2022-11-24T18:52:06.395Z,27.31
2022-11-24T18:54:35.581Z,27.31
2022-11-24T18:57:03.647Z,27.19
2022-11-24T18:59:30.832Z,27.19
2022-11-24T19:01:57.988Z,27.06
2022-11-24T19:04:25.115Z,26.94
2022-11-24T19:06:52.120Z,26.81
2022-11-24T19:09:19.176Z,26.75
2022-11-24T19:11:46.198Z,26.56
2022-11-24T19:14:13.221Z,26.38
2022-11-24T19:16:42.317Z,26.25
2022-11-24T19:19:12.162Z,26.13
2022-11-24T19:21:39.142Z,26.00
2022-11-24T19:24:06.207Z,25.88
2022-11-24T19:26:33.229Z,25.69
2022-11-24T19:29:00.237Z,25.50
2022-11-24T19:31:27.407Z,25.25
2022-11-24T19:33:54.446Z,24.88
2022-11-24T19:36:24.622Z,24.63
2022-11-24T19:38:54.739Z,24.25
2022-11-24T19:41:22.527Z,23.81
2022-11-24T19:43:49.584Z,23.06
2022-11-24T19:46:16.720Z,22.56
2022-11-24T19:48:43.743Z,22.25
2022-11-24T19:51:10.766Z,21.94
2022-11-24T19:53:37.831Z,21.63
2022-11-24T19:56:04.857Z,21.31
2022-11-24T19:58:31.927Z,21.06
2022-11-24T20:00:58.970Z,20.88
2022-11-24T20:03:25.965Z,20.69
2022-11-24T20:05:53.068Z,21.38
2022-11-24T20:08:20.126Z,22.63
2022-11-24T20:10:47.110Z,23.94
2022-11-24T20:13:14.200Z,25.31
2022-11-24T20:15:41.159Z,26.63
2022-11-24T20:18:08.208Z,27.56
2022-11-24T20:20:35.206Z,27.75
2022-11-24T20:23:02.214Z,27.50
2022-11-24T20:25:29.223Z,26.81
2022-11-24T20:27:56.301Z,26.31
2022-11-24T20:30:23.238Z,25.75
2022-11-24T20:32:50.288Z,25.31
2022-11-24T20:35:18.524Z,24.81
2022-11-24T20:37:45.674Z,24.31
2022-11-24T20:40:12.706Z,23.94
2022-11-24T20:42:39.736Z,23.63
2022-11-24T20:45:06.794Z,23.25
2022-11-24T20:47:33.783Z,23.00
2022-11-24T20:50:00.839Z,22.75
2022-11-24T20:52:30.548Z,22.50
2022-11-24T20:54:57.617Z,22.25
2022-11-24T20:57:24.677Z,22.00
2022-11-24T20:59:51.753Z,21.88
2022-11-24T21:02:21.595Z,21.63
2022-11-24T21:04:48.628Z,22.06
2022-11-24T21:07:15.786Z,23.00
2022-11-24T21:09:42.854Z,24.25
2022-11-24T21:12:09.819Z,25.25
2022-11-24T21:14:37.195Z,26.31
2022-11-24T21:17:04.423Z,27.25
2022-11-24T21:19:31.448Z,27.50
2022-11-24T21:21:58.450Z,27.19
2022-11-24T21:24:25.460Z,26.75
2022-11-24T21:26:52.882Z,26.19
2022-11-24T21:29:20.096Z,25.69
2022-11-24T21:31:47.192Z,25.25
2022-11-24T21:34:14.310Z,25.00
2022-11-24T21:36:41.315Z,24.69
2022-11-24T21:39:08.400Z,24.38
2022-11-24T21:41:35.463Z,24.00
2022-11-24T21:44:02.471Z,23.69
2022-11-24T21:46:29.486Z,23.44
2022-11-24T21:48:56.486Z,23.13
2022-11-24T21:51:23.545Z,22.81
2022-11-24T21:53:50.583Z,22.56
2022-11-24T21:56:17.711Z,22.38
2022-11-24T21:58:44.732Z,22.13
2022-11-24T22:01:11.820Z,22.00
2022-11-24T22:03:38.930Z,21.75
2022-11-24T22:06:05.948Z,21.88
2022-11-24T22:08:33.041Z,22.44
2022-11-24T22:11:00.007Z,23.44
2022-11-24T22:13:26.979Z,24.69
2022-11-24T22:15:55.384Z,25.75
2022-11-24T22:18:22.484Z,26.63
2022-11-24T22:20:49.481Z,27.13
2022-11-24T22:23:16.580Z,27.06
2022-11-24T22:25:43.611Z,26.69
2022-11-24T22:28:10.621Z,26.19
2022-11-24T22:30:37.616Z,25.69
2022-11-24T22:33:04.621Z,25.19
2022-11-24T22:35:31.673Z,24.88
2022-11-24T22:38:00.606Z,24.56
2022-11-24T22:40:27.586Z,24.19
2022-11-24T22:42:54.603Z,23.88
2022-11-24T22:45:21.595Z,23.63
2022-11-24T22:47:48.711Z,23.38
2022-11-24T22:50:15.740Z,23.06
2022-11-24T22:52:43.209Z,22.88
2022-11-24T22:55:10.243Z,22.63
2022-11-24T22:57:37.264Z,22.38
2022-11-24T23:00:04.270Z,22.19
2022-11-24T23:02:31.326Z,22.00
2022-11-24T23:04:58.377Z,21.81
2022-11-24T23:07:25.474Z,21.69
2022-11-24T23:09:52.578Z,22.13
2022-11-24T23:12:19.630Z,22.94
2022-11-24T23:14:46.680Z,24.06
